Time;durP1;ratioP1;P1;durP2;ratioP2;P2;SDS_P1;SDS_P2;PMS_P1;PMS_P2;Temp;Humidity;BMP_temperature;BMP_pressure;BME280_temperature;BME280_humidity;BME280_pressure;Samples;Min_cycle;Max_cycle;Signal;HPM_P1;HPM_P2
2023/02/01 00:01:20;;;;;;;;;;;7.40;99.90;;;;;;5097870;28;19912;-83
2023/02/01 00:03:45;;;;;;;;;;;7.30;99.90;;;;;;5096920;28;20272;-83
2023/02/01 00:06:11;;;;;;;;;;;7.40;99.90;;;;;;5095216;28;19912;-83
2023/02/01 00:08:36;;;;;;;;;;;7.30;99.90;;;;;;5095079;28;19916;-83
2023/02/01 00:11:06;;;;;;;;;;;7.30;99.90;;;;;;5100890;28;19954;-83
2023/02/01 00:13:32;;;;;;;;;;;7.20;99.90;;;;;;5099672;28;19976;-83
2023/02/01 00:16:16;;;;;;;;;;;7.20;99.90;;;;;;5091060;28;20011;-83
2023/02/01 00:18:42;;;;;;;;;;;7.10;99.90;;;;;;5097163;28;19912;-83
2023/02/01 00:21:09;;;;;;;;;;;7.10;99.90;;;;;;5093134;28;19913;-83
2023/02/01 00:23:35;;;;;;;;;;;7.10;99.90;;;;;;5093738;28;20328;-83
2023/02/01 00:26:02;;;;;;;;;;;7.00;99.90;;;;;;5096206;28;20329;-82
2023/02/01 00:28:27;;;;;;;;;;;6.90;99.90;;;;;;5094283;28;19977;-81
2023/02/01 00:30:57;;;;;;;;;;;6.90;99.90;;;;;;5097620;28;19916;-82
2023/02/01 00:33:22;;;;;;;;;;;6.90;99.90;;;;;;5094246;28;20002;-82
2023/02/01 00:35:47;;;;;;;;;;;6.90;99.90;;;;;;5089728;28;19954;-79
2023/02/01 00:38:13;;;;;;;;;;;6.90;99.90;;;;;;5085420;28;19912;-82
2023/02/01 00:40:38;;;;;;;;;;;6.90;99.90;;;;;;5097595;28;19912;-80
2023/02/01 00:43:04;;;;;;;;;;;6.80;99.90;;;;;;5096593;28;19927;-82
2023/02/01 00:45:29;;;;;;;;;;;6.70;99.90;;;;;;5095116;28;19966;-80
2023/02/01 00:47:55;;;;;;;;;;;6.70;99.90;;;;;;5096000;28;19947;-83
2023/02/01 00:50:20;;;;;;;;;;;6.70;99.90;;;;;;5089826;28;19912;-81
2023/02/01 00:52:46;;;;;;;;;;;6.70;99.90;;;;;;5094702;28;20375;-82
2023/02/01 00:55:11;;;;;;;;;;;6.80;99.90;;;;;;5091931;28;20456;-83
2023/02/01 00:57:37;;;;;;;;;;;6.80;99.90;;;;;;5095317;28;19918;-83
2023/02/01 01:00:03;;;;;;;;;;;6.80;99.90;;;;;;5095918;28;20416;-82
2023/02/01 01:02:28;;;;;;;;;;;6.70;99.90;;;;;;5100748;28;20375;-82
2023/02/01 01:04:54;;;;;;;;;;;6.80;99.90;;;;;;5087981;28;19920;-81
2023/02/01 01:07:19;;;;;;;;;;;6.80;99.90;;;;;;5102395;28;19938;-83
2023/02/01 01:09:45;;;;;;;;;;;6.80;99.90;;;;;;5095027;28;19916;-81
2023/02/01 01:12:10;;;;;;;;;;;6.70;99.90;;;;;;5096232;28;19925;-83
2023/02/01 01:14:36;;;;;;;;;;;6.60;99.90;;;;;;5110791;28;20296;-82
2023/02/01 01:17:01;;;;;;;;;;;6.60;99.90;;;;;;5104898;28;19912;-83
2023/02/01 01:19:27;;;;;;;;;;;6.60;99.90;;;;;;5129358;27;19916;-82
2023/02/01 01:21:52;;;;;;;;;;;6.60;99.90;;;;;;5111932;28;19912;-82
2023/02/01 01:24:18;;;;;;;;;;;6.70;99.90;;;;;;5107130;28;19903;-83
2023/02/01 01:26:43;;;;;;;;;;;6.70;99.90;;;;;;5104572;28;19927;-83
2023/02/01 01:29:09;;;;;;;;;;;6.70;99.90;;;;;;5104102;28;19913;-82
2023/02/01 01:31:34;;;;;;;;;;;6.70;99.90;;;;;;5110849;28;19920;-83
2023/02/01 01:34:01;;;;;;;;;;;6.80;99.90;;;;;;5106733;28;19919;-83
2023/02/01 01:36:27;;;;;;;;;;;6.70;99.90;;;;;;5106634;28;19942;-83
2023/02/01 01:38:53;;;;;;;;;;;6.80;99.90;;;;;;5111927;28;19919;-83
2023/02/01 01:41:20;;;;;;;;;;;6.80;99.90;;;;;;5104505;28;19912;-83
2023/02/01 01:43:46;;;;;;;;;;;6.80;99.90;;;;;;5100906;28;19938;-82
2023/02/01 01:46:15;;;;;;;;;;;6.80;99.90;;;;;;5106701;28;19912;-83
2023/02/01 01:48:40;;;;;;;;;;;6.80;99.90;;;;;;5102925;28;19923;-83
2023/02/01 01:51:10;;;;;;;;;;;6.80;99.90;;;;;;5098946;28;19916;-83
2023/02/01 01:53:44;;;;;;;;;;;6.80;99.90;;;;;;5116007;28;19916;-83
2023/02/01 01:56:10;;;;;;;;;;;6.70;99.90;;;;;;5109634;28;19912;-84
2023/02/01 01:58:36;;;;;;;;;;;6.70;99.90;;;;;;5106194;28;19916;-83
2023/02/01 02:01:01;;;;;;;;;;;6.70;99.90;;;;;;5108029;28;19927;-84
2023/02/01 02:03:33;;;;;;;;;;;6.70;99.90;;;;;;5107659;28;19913;-83
2023/02/01 02:05:59;;;;;;;;;;;6.60;99.90;;;;;;5087177;28;19913;-84
2023/02/01 02:08:25;;;;;;;;;;;6.60;99.90;;;;;;5085024;28;19927;-84
2023/02/01 02:10:59;;;;;;;;;;;6.60;99.90;;;;;;5104272;28;19912;-83
2023/02/01 02:13:31;;;;;;;;;;;6.60;99.90;;;;;;5107424;28;19908;-84
2023/02/01 02:16:15;;;;;;;;;;;6.60;99.90;;;;;;5101943;28;19901;-84
2023/02/01 02:18:52;;;;;;;;;;;6.60;99.90;;;;;;5104905;28;19916;-83
2023/02/01 02:21:27;;;;;;;;;;;6.60;99.90;;;;;;5104886;28;19919;-84
2023/02/01 02:24:02;;;;;;;;;;;6.60;99.90;;;;;;5098034;28;19928;-84
2023/02/01 02:26:39;;;;;;;;;;;6.60;99.90;;;;;;5106742;28;19913;-84
2023/02/01 02:29:20;;;;;;;;;;;6.60;99.90;;;;;;5113817;28;19916;-84
2023/02/01 02:32:04;;;;;;;;;;;6.50;99.90;;;;;;5108610;28;19920;-84
2023/02/01 02:34:30;;;;;;;;;;;6.60;99.90;;;;;;5107813;28;19916;-83
2023/02/01 02:37:01;;;;;;;;;;;6.60;99.90;;;;;;5104339;28;20375;-83
2023/02/01 02:39:39;;;;;;;;;;;6.60;99.90;;;;;;5120861;28;20079;-84
2023/02/01 02:47:44;;;;;;;;;;;6.70;99.90;;;;;;5110102;28;19923;-83
2023/02/01 02:55:45;;;;;;;;;;;6.70;99.90;;;;;;5113353;28;19931;-83
2023/02/01 03:06:24;;;;;;;;;;;6.90;99.90;;;;;;5109143;28;19935;-83
2023/02/01 03:08:53;;;;;;;;;;;6.90;99.90;;;;;;5102932;28;19919;-83
2023/02/01 03:11:20;;;;;;;;;;;6.80;99.90;;;;;;5112085;28;19922;-83
2023/02/01 03:13:48;;;;;;;;;;;6.90;99.90;;;;;;5104120;28;19915;-83
2023/02/01 03:16:26;;;;;;;;;;;6.90;99.90;;;;;;5108382;28;20337;-84
2023/02/01 03:18:57;;;;;;;;;;;6.90;99.90;;;;;;5111813;28;19912;-83
2023/02/01 03:21:28;;;;;;;;;;;6.90;99.90;;;;;;5120399;27;19912;-82
2023/02/01 03:23:56;;;;;;;;;;;6.90;99.90;;;;;;5101749;28;19959;-83
2023/02/01 03:26:23;;;;;;;;;;;7.00;99.90;;;;;;5113875;28;19959;-84
2023/02/01 03:28:56;;;;;;;;;;;7.00;99.90;;;;;;5114547;28;19951;-84
2023/02/01 03:31:22;;;;;;;;;;;7.00;99.90;;;;;;5106441;28;19923;-83
2023/02/01 03:33:47;;;;;;;;;;;6.90;99.90;;;;;;5104582;28;19974;-84
2023/02/01 03:36:25;;;;;;;;;;;7.00;99.90;;;;;;5106844;28;19912;-84
2023/02/01 03:38:55;;;;;;;;;;;6.90;99.90;;;;;;5116799;28;19912;-84
2023/02/01 03:41:20;;;;;;;;;;;6.90;99.90;;;;;;5108673;28;19923;-84
2023/02/01 03:43:55;;;;;;;;;;;6.90;99.90;;;;;;5107512;28;19916;-84
2023/02/01 03:46:27;;;;;;;;;;;7.00;99.90;;;;;;5106562;28;19917;-83
2023/02/01 03:48:53;;;;;;;;;;;6.90;99.90;;;;;;5106248;28;19916;-84
2023/02/01 03:51:20;;;;;;;;;;;6.90;99.90;;;;;;5106738;28;19946;-83
2023/02/01 03:53:47;;;;;;;;;;;6.90;99.90;;;;;;5111188;28;19916;-84
2023/02/01 03:56:13;;;;;;;;;;;6.80;99.90;;;;;;5102383;28;19916;-84
2023/02/01 03:58:39;;;;;;;;;;;6.90;99.90;;;;;;5106440;28;20032;-83
2023/02/01 04:01:05;;;;;;;;;;;6.80;99.90;;;;;;5106860;28;19912;-83
2023/02/01 04:03:32;;;;;;;;;;;6.80;99.90;;;;;;5108441;28;19912;-83
2023/02/01 04:05:57;;;;;;;;;;;6.80;99.90;;;;;;5100533;28;19913;-83
2023/02/01 04:08:23;;;;;;;;;;;6.80;99.90;;;;;;5105382;28;19911;-84
2023/02/01 04:10:48;;;;;;;;;;;6.70;99.90;;;;;;5105514;28;20408;-83
2023/02/01 04:13:14;;;;;;;;;;;6.80;99.90;;;;;;5109174;28;19934;-83
2023/02/01 04:15:39;;;;;;;;;;;6.80;99.90;;;;;;5102599;28;20312;-83
2023/02/01 04:18:05;;;;;;;;;;;6.80;99.90;;;;;;5104174;28;19980;-83
2023/02/01 04:20:30;;;;;;;;;;;6.80;99.90;;;;;;5100891;28;19923;-82
2023/02/01 04:22:56;;;;;;;;;;;6.80;99.90;;;;;;5109082;28;19912;-83
2023/02/01 04:25:21;;;;;;;;;;;6.90;99.90;;;;;;5110607;28;19931;-84
2023/02/01 04:27:47;;;;;;;;;;;6.90;99.90;;;;;;5106018;28;19918;-83
2023/02/01 04:30:13;;;;;;;;;;;6.90;99.90;;;;;;5103485;28;20407;-84
2023/02/01 04:32:38;;;;;;;;;;;6.80;99.90;;;;;;5110146;28;20303;-83
2023/02/01 04:35:04;;;;;;;;;;;6.90;99.90;;;;;;5099579;28;19939;-84
2023/02/01 04:37:30;;;;;;;;;;;6.90;99.90;;;;;;5107169;28;19912;-83
2023/02/01 04:39:55;;;;;;;;;;;6.90;99.90;;;;;;5107538;28;19991;-83
2023/02/01 04:42:21;;;;;;;;;;;6.90;99.90;;;;;;5105289;28;19912;-83
2023/02/01 04:44:46;;;;;;;;;;;6.80;99.90;;;;;;5102357;28;19958;-82
2023/02/01 04:47:12;;;;;;;;;;;6.80;99.90;;;;;;5107353;28;19916;-83
2023/02/01 04:49:37;;;;;;;;;;;6.70;99.90;;;;;;5100576;28;19919;-85
2023/02/01 04:52:03;;;;;;;;;;;6.70;99.90;;;;;;5106553;28;19934;-84
2023/02/01 04:54:28;;;;;;;;;;;6.70;99.90;;;;;;5109254;28;19916;-83
2023/02/01 04:56:53;;;;;;;;;;;6.70;99.90;;;;;;5103048;28;19927;-81
2023/02/01 04:59:19;;;;;;;;;;;6.60;99.90;;;;;;5103298;28;19980;-82
2023/02/01 05:01:44;;;;;;;;;;;6.60;99.90;;;;;;5108582;28;20415;-83
2023/02/01 05:04:10;;;;;;;;;;;6.60;99.90;;;;;;5102000;28;19941;-85
2023/02/01 05:06:35;;;;;;;;;;;6.60;99.90;;;;;;5103426;28;20443;-85
2023/02/01 05:09:01;;;;;;;;;;;6.60;99.90;;;;;;5105456;28;19917;-84
2023/02/01 05:14:10;;;;;;;;;;;6.60;99.90;;;;;;5104160;28;19983;-84
2023/02/01 05:16:36;;;;;;;;;;;6.60;99.90;;;;;;5105853;28;19912;-82
2023/02/01 05:19:01;;;;;;;;;;;6.60;99.90;;;;;;5107489;28;20304;-84
2023/02/01 05:21:27;;;;;;;;;;;6.60;99.90;;;;;;5100784;28;19912;-83
2023/02/01 05:24:12;;;;;;;;;;;6.60;99.90;;;;;;5109689;28;19924;-84
2023/02/01 05:26:39;;;;;;;;;;;6.60;99.90;;;;;;5113856;28;19918;-82
2023/02/01 05:29:05;;;;;;;;;;;6.50;99.90;;;;;;5104019;28;20004;-82
2023/02/01 05:31:30;;;;;;;;;;;6.50;99.90;;;;;;5106882;28;19916;-82
2023/02/01 05:33:56;;;;;;;;;;;6.40;99.90;;;;;;5104918;28;19918;-84
2023/02/01 05:36:22;;;;;;;;;;;6.40;99.90;;;;;;5107510;28;19920;-84
2023/02/01 05:38:47;;;;;;;;;;;6.50;99.90;;;;;;5107077;28;19916;-82
2023/02/01 05:41:13;;;;;;;;;;;6.50;99.90;;;;;;5105776;28;19979;-83
2023/02/01 05:43:38;;;;;;;;;;;6.40;99.90;;;;;;5105402;28;19918;-82
2023/02/01 05:46:04;;;;;;;;;;;6.40;99.90;;;;;;5104895;28;19920;-83
2023/02/01 05:48:29;;;;;;;;;;;6.40;99.90;;;;;;5104969;28;19913;-83
2023/02/01 05:50:55;;;;;;;;;;;6.30;99.90;;;;;;5101845;28;19920;-83
2023/02/01 05:53:20;;;;;;;;;;;6.30;99.90;;;;;;5101128;28;20019;-83
2023/02/01 05:55:48;;;;;;;;;;;6.40;99.90;;;;;;5101241;28;20281;-81
2023/02/01 05:58:13;;;;;;;;;;;6.30;99.90;;;;;;5099241;28;19923;-80
2023/02/01 06:00:39;;;;;;;;;;;6.30;99.90;;;;;;5106892;28;19983;-80
2023/02/01 06:03:04;;;;;;;;;;;6.30;99.90;;;;;;5105870;28;20103;-81
2023/02/01 06:05:30;;;;;;;;;;;6.30;99.90;;;;;;5105494;28;19957;-83
2023/02/01 06:07:55;;;;;;;;;;;6.30;99.90;;;;;;5099691;28;19927;-83
2023/02/01 06:10:21;;;;;;;;;;;6.30;99.90;;;;;;5102862;28;19912;-85
2023/02/01 06:12:46;;;;;;;;;;;6.20;99.90;;;;;;5100861;28;19969;-84
2023/02/01 06:15:12;;;;;;;;;;;6.20;99.90;;;;;;5103959;28;20045;-82
2023/02/01 06:17:39;;;;;;;;;;;6.20;99.90;;;;;;5102054;28;19923;-81
2023/02/01 06:20:06;;;;;;;;;;;6.20;99.90;;;;;;5102470;28;19947;-82
2023/02/01 06:22:32;;;;;;;;;;;6.20;99.90;;;;;;5107705;28;19919;-82
2023/02/01 06:24:58;;;;;;;;;;;6.20;99.90;;;;;;5107351;28;19912;-81
2023/02/01 06:27:24;;;;;;;;;;;6.20;99.90;;;;;;5104950;28;19946;-81
2023/02/01 06:29:49;;;;;;;;;;;6.20;99.90;;;;;;5102693;28;19920;-81
2023/02/01 06:32:15;;;;;;;;;;;6.20;99.90;;;;;;5101133;28;19938;-83
2023/02/01 06:34:40;;;;;;;;;;;6.10;99.90;;;;;;5108739;28;19928;-82
2023/02/01 06:37:06;;;;;;;;;;;6.20;99.90;;;;;;5106469;28;19912;-81
2023/02/01 06:39:31;;;;;;;;;;;6.10;99.90;;;;;;5107112;28;19958;-82
2023/02/01 06:41:57;;;;;;;;;;;6.10;99.90;;;;;;5101966;28;19958;-83
2023/02/01 06:44:22;;;;;;;;;;;6.10;99.90;;;;;;5105420;28;19908;-82
2023/02/01 06:46:48;;;;;;;;;;;6.10;99.90;;;;;;5105973;28;19927;-82
2023/02/01 06:49:13;;;;;;;;;;;6.10;99.90;;;;;;5109210;28;19984;-81
2023/02/01 06:51:38;;;;;;;;;;;6.10;99.90;;;;;;5105337;28;19916;-83
2023/02/01 06:54:04;;;;;;;;;;;6.10;99.90;;;;;;5102261;28;19916;-82
2023/02/01 06:56:31;;;;;;;;;;;6.20;99.90;;;;;;5103769;28;20035;-82
2023/02/01 06:58:56;;;;;;;;;;;6.20;99.90;;;;;;5108233;28;19911;-83
2023/02/01 07:01:22;;;;;;;;;;;6.20;99.90;;;;;;5102878;28;19911;-82
2023/02/01 07:03:48;;;;;;;;;;;6.30;99.90;;;;;;5107989;28;19916;-83
2023/02/01 07:06:14;;;;;;;;;;;6.30;99.90;;;;;;5102827;28;19919;-77
2023/02/01 07:08:39;;;;;;;;;;;6.30;99.90;;;;;;5083594;28;20297;-77
2023/02/01 07:11:14;;;;;;;;;;;6.40;99.90;;;;;;5088936;28;19924;-81
2023/02/01 07:13:40;;;;;;;;;;;6.40;99.90;;;;;;5107835;28;19919;-80
2023/02/01 07:16:07;;;;;;;;;;;6.30;99.90;;;;;;5103437;28;19971;-83
2023/02/01 07:18:32;;;;;;;;;;;6.30;99.90;;;;;;5105261;28;19908;-80
2023/02/01 07:20:59;;;;;;;;;;;6.30;99.90;;;;;;5103876;28;19975;-84
2023/02/01 07:23:25;;;;;;;;;;;6.30;99.90;;;;;;5101620;28;19981;-82
2023/02/01 07:25:57;;;;;;;;;;;6.40;99.90;;;;;;5099240;28;19908;-81
2023/02/01 07:28:23;;;;;;;;;;;6.30;99.90;;;;;;5099699;28;20057;-82
2023/02/01 07:30:50;;;;;;;;;;;6.40;99.90;;;;;;5100772;28;20289;-82
2023/02/01 07:33:18;;;;;;;;;;;6.40;99.90;;;;;;5096549;28;19916;-83
2023/02/01 07:35:43;;;;;;;;;;;6.40;99.90;;;;;;5099761;28;19935;-83
2023/02/01 07:38:09;;;;;;;;;;;6.40;99.90;;;;;;5103651;28;20249;-83
2023/02/01 07:40:34;;;;;;;;;;;6.40;99.90;;;;;;5101298;28;19938;-84
2023/02/01 07:43:00;;;;;;;;;;;6.40;99.90;;;;;;5083156;28;19915;-81
2023/02/01 07:45:25;;;;;;;;;;;6.40;99.90;;;;;;5080119;28;19926;-80
2023/02/01 07:47:51;;;;;;;;;;;6.40;99.90;;;;;;5074999;28;19916;-80
2023/02/01 07:50:17;;;;;;;;;;;6.40;99.90;;;;;;5083578;28;20455;-83
2023/02/01 07:52:42;;;;;;;;;;;6.30;99.90;;;;;;5106833;28;19970;-83
2023/02/01 07:55:08;;;;;;;;;;;6.30;99.90;;;;;;5097460;28;19959;-83
2023/02/01 07:57:34;;;;;;;;;;;6.30;99.90;;;;;;5097808;28;19913;-82
2023/02/01 08:02:43;;;;;;;;;;;6.30;99.90;;;;;;5092726;28;19978;-81
2023/02/01 08:05:09;;;;;;;;;;;6.30;99.90;;;;;;5100020;28;19912;-81
2023/02/01 08:07:34;;;;;;;;;;;6.30;99.90;;;;;;5113803;28;20343;-80
2023/02/01 08:10:00;;;;;;;;;;;6.30;99.90;;;;;;5099343;28;20011;-82
2023/02/01 08:12:26;;;;;;;;;;;6.30;99.90;;;;;;5093594;28;19912;-82
2023/02/01 08:14:53;;;;;;;;;;;6.30;99.90;;;;;;5094702;28;19912;-82
2023/02/01 08:17:18;;;;;;;;;;;6.30;99.90;;;;;;5098531;28;20001;-82
2023/02/01 08:19:44;;;;;;;;;;;6.30;99.90;;;;;;5096984;28;20319;-79
2023/02/01 08:22:09;;;;;;;;;;;6.30;99.90;;;;;;5097430;28;19918;-83
2023/02/01 08:24:35;;;;;;;;;;;6.30;99.90;;;;;;5106775;28;19965;-82
2023/02/01 08:27:01;;;;;;;;;;;6.30;99.90;;;;;;5099927;28;20349;-80
2023/02/01 08:29:27;;;;;;;;;;;6.30;99.90;;;;;;5094708;28;20365;-82
2023/02/01 08:31:54;;;;;;;;;;;6.30;99.90;;;;;;5096546;28;19924;-82
2023/02/01 08:34:19;;;;;;;;;;;6.30;99.90;;;;;;5098465;28;20003;-83
2023/02/01 08:36:45;;;;;;;;;;;6.30;99.90;;;;;;5099563;28;19962;-80
2023/02/01 08:39:10;;;;;;;;;;;6.40;99.90;;;;;;5095862;28;19919;-79
2023/02/01 08:41:36;;;;;;;;;;;6.40;99.90;;;;;;5090458;28;20434;-82
2023/02/01 08:44:01;;;;;;;;;;;6.50;99.90;;;;;;5087480;28;20280;-81
2023/02/01 08:46:27;;;;;;;;;;;6.50;99.90;;;;;;5099329;28;19920;-81
2023/02/01 08:48:53;;;;;;;;;;;6.50;99.90;;;;;;5098400;28;19912;-81
2023/02/01 08:51:19;;;;;;;;;;;6.60;99.90;;;;;;5104754;28;20334;-79
2023/02/01 08:53:45;;;;;;;;;;;6.60;99.90;;;;;;5085937;28;20344;-79
2023/02/01 08:56:11;;;;;;;;;;;6.60;99.90;;;;;;5106484;28;19954;-81
2023/02/01 08:58:37;;;;;;;;;;;6.70;99.90;;;;;;5097337;28;19912;-81
2023/02/01 09:01:07;;;;;;;;;;;6.70;99.90;;;;;;5095807;28;20488;-82
2023/02/01 09:03:33;;;;;;;;;;;6.80;99.90;;;;;;5095553;28;19908;-80
2023/02/01 09:06:06;;;;;;;;;;;6.80;99.90;;;;;;5109806;28;20011;-78
2023/02/01 09:08:31;;;;;;;;;;;6.90;99.90;;;;;;5090650;28;19969;-79
2023/02/01 09:11:05;;;;;;;;;;;6.90;99.90;;;;;;5095927;28;19912;-81
2023/02/01 09:13:31;;;;;;;;;;;6.90;99.90;;;;;;5098422;28;19978;-82
2023/02/01 09:15:57;;;;;;;;;;;7.00;99.90;;;;;;5083431;28;19912;-82
2023/02/01 09:18:22;;;;;;;;;;;7.00;99.90;;;;;;5097337;28;20369;-82
2023/02/01 09:20:48;;;;;;;;;;;7.10;99.90;;;;;;5097132;28;19912;-83
2023/02/01 09:23:13;;;;;;;;;;;7.20;99.90;;;;;;5097570;28;19912;-81
2023/02/01 09:25:39;;;;;;;;;;;7.20;99.90;;;;;;5095821;28;20023;-80
2023/02/01 09:28:05;;;;;;;;;;;7.30;99.90;;;;;;5097839;28;19912;-82
2023/02/01 09:30:32;;;;;;;;;;;7.20;99.90;;;;;;5099477;28;19993;-80
2023/02/01 09:32:57;;;;;;;;;;;7.20;99.90;;;;;;5099301;28;19934;-81
2023/02/01 09:35:23;;;;;;;;;;;7.10;99.90;;;;;;5096736;28;19912;-82
2023/02/01 09:37:48;;;;;;;;;;;7.00;99.90;;;;;;5093946;28;19917;-79
2023/02/01 09:40:15;;;;;;;;;;;7.00;99.90;;;;;;5098693;28;19919;-82
2023/02/01 09:42:40;;;;;;;;;;;7.10;99.90;;;;;;5098995;28;19923;-82
2023/02/01 09:45:06;;;;;;;;;;;7.20;99.90;;;;;;5097060;28;19912;-82
2023/02/01 09:47:32;;;;;;;;;;;7.30;99.90;;;;;;5098996;28;19916;-82
2023/02/01 09:50:16;;;;;;;;;;;7.30;99.90;;;;;;5098389;28;20203;-82
2023/02/01 09:53:02;;;;;;;;;;;7.40;99.90;;;;;;5097726;28;19920;-80
2023/02/01 09:55:32;;;;;;;;;;;7.50;99.90;;;;;;5096678;28;19912;-80
2023/02/01 09:58:00;;;;;;;;;;;7.50;99.90;;;;;;5092852;28;19915;-80
2023/02/01 10:00:29;;;;;;;;;;;7.40;99.90;;;;;;5096640;28;19931;-81
2023/02/01 10:02:55;;;;;;;;;;;7.50;99.90;;;;;;5114246;28;19947;-82
2023/02/01 10:05:39;;;;;;;;;;;7.40;99.90;;;;;;5098893;28;19908;-81
2023/02/01 10:08:12;;;;;;;;;;;7.40;99.90;;;;;;5099076;28;19982;-81
2023/02/01 10:10:43;;;;;;;;;;;7.30;99.90;;;;;;5098429;28;19920;-82
2023/02/01 10:13:27;;;;;;;;;;;7.30;99.90;;;;;;5099394;28;19923;-81
2023/02/01 10:16:00;;;;;;;;;;;7.20;99.90;;;;;;5092345;28;20238;-83
2023/02/01 10:18:37;;;;;;;;;;;7.10;99.90;;;;;;5098881;28;20001;-83
2023/02/01 10:21:10;;;;;;;;;;;7.20;99.90;;;;;;5090946;28;19908;-82
2023/02/01 10:23:45;;;;;;;;;;;7.30;99.90;;;;;;5098216;28;19966;-82
2023/02/01 10:26:20;;;;;;;;;;;7.40;99.90;;;;;;5113218;28;19943;-80
2023/02/01 10:28:48;;;;;;;;;;;7.60;99.90;;;;;;5092218;28;20007;-82
2023/02/01 10:31:13;;;;;;;;;;;7.80;99.90;;;;;;5098347;28;19965;-79
2023/02/01 10:33:44;;;;;;;;;;;7.90;99.90;;;;;;5094825;28;19912;-81
2023/02/01 10:36:13;;;;;;;;;;;7.90;99.90;;;;;;5095970;28;19912;-81
2023/02/01 10:38:38;;;;;;;;;;;8.00;99.90;;;;;;5097500;28;20357;-79
2023/02/01 10:41:11;;;;;;;;;;;8.10;99.90;;;;;;5096214;28;19962;-82
2023/02/01 10:43:38;;;;;;;;;;;8.20;99.90;;;;;;5093931;28;20622;-80
2023/02/01 10:46:04;;;;;;;;;;;8.20;99.90;;;;;;5089277;28;19931;-79
2023/02/01 10:48:31;;;;;;;;;;;8.20;99.90;;;;;;5098422;28;19916;-81
2023/02/01 10:51:06;;;;;;;;;;;8.20;99.90;;;;;;5097342;28;19956;-79
2023/02/01 10:53:35;;;;;;;;;;;8.20;99.90;;;;;;5112368;28;19923;-81
2023/02/01 10:56:08;;;;;;;;;;;8.30;99.90;;;;;;5101762;28;20324;-82
2023/02/01 10:58:36;;;;;;;;;;;8.10;99.90;;;;;;5096633;28;20421;-83
2023/02/01 11:01:04;;;;;;;;;;;8.10;99.90;;;;;;5095611;28;19916;-81
2023/02/01 11:03:38;;;;;;;;;;;8.20;99.90;;;;;;5091168;28;19915;-82
2023/02/01 11:06:17;;;;;;;;;;;8.20;99.90;;;;;;5090059;28;20023;-81
2023/02/01 11:08:45;;;;;;;;;;;8.30;99.90;;;;;;5090166;28;20329;-81
2023/02/01 11:11:11;;;;;;;;;;;8.40;99.90;;;;;;5100318;28;19970;-82
2023/02/01 11:13:38;;;;;;;;;;;8.60;99.90;;;;;;5077864;28;19912;-81
2023/02/01 11:16:04;;;;;;;;;;;8.50;99.90;;;;;;5100704;28;19923;-81
2023/02/01 11:18:31;;;;;;;;;;;8.50;99.90;;;;;;5108100;28;19998;-80
2023/02/01 11:20:58;;;;;;;;;;;8.30;99.90;;;;;;5081873;28;19912;-82
2023/02/01 11:23:25;;;;;;;;;;;8.30;99.90;;;;;;5081447;28;20122;-80
2023/02/01 11:25:57;;;;;;;;;;;8.30;99.90;;;;;;5079646;28;19912;-82
2023/02/01 11:28:29;;;;;;;;;;;8.20;99.90;;;;;;5081366;28;19986;-81
2023/02/01 11:30:56;;;;;;;;;;;8.20;99.90;;;;;;5086269;28;19912;-81
2023/02/01 11:33:24;;;;;;;;;;;8.20;99.90;;;;;;5100370;28;19930;-83
2023/02/01 11:35:51;;;;;;;;;;;8.20;99.90;;;;;;5107361;28;19994;-84
2023/02/01 11:38:35;;;;;;;;;;;8.30;99.90;;;;;;5101363;28;21403;-82
2023/02/01 11:41:20;;;;;;;;;;;8.40;99.90;;;;;;5099080;28;19916;-82
2023/02/01 11:43:52;;;;;;;;;;;8.30;99.90;;;;;;5096829;28;19924;-82
2023/02/01 11:46:24;;;;;;;;;;;8.20;99.90;;;;;;5101557;28;20648;-80
2023/02/01 11:48:50;;;;;;;;;;;8.30;99.90;;;;;;5100354;28;20538;-83
2023/02/01 11:51:34;;;;;;;;;;;8.30;99.90;;;;;;5097999;28;19924;-82
2023/02/01 11:53:59;;;;;;;;;;;8.40;99.90;;;;;;5095490;28;19916;-82
2023/02/01 11:56:25;;;;;;;;;;;8.40;99.90;;;;;;5116105;28;19938;-82
2023/02/01 11:58:53;;;;;;;;;;;8.40;99.90;;;;;;5099179;28;19923;-81
2023/02/01 12:01:22;;;;;;;;;;;8.40;99.90;;;;;;5095161;28;19916;-81
2023/02/01 12:03:56;;;;;;;;;;;8.30;99.90;;;;;;5097045;28;20007;-78
2023/02/01 12:06:25;;;;;;;;;;;8.30;99.90;;;;;;5087493;28;19913;-81
2023/02/01 12:08:59;;;;;;;;;;;8.30;99.90;;;;;;5098126;28;19915;-80
2023/02/01 12:11:35;;;;;;;;;;;8.30;99.90;;;;;;5099215;28;19920;-81
2023/02/01 12:14:03;;;;;;;;;;;8.30;99.90;;;;;;5096045;28;19957;-81
2023/02/01 12:16:35;;;;;;;;;;;8.30;99.90;;;;;;5092907;28;19919;-81
2023/02/01 12:19:14;;;;;;;;;;;8.40;99.90;;;;;;5105599;28;19912;-81
2023/02/01 12:21:46;;;;;;;;;;;8.40;99.90;;;;;;5111323;28;19919;-82
2023/02/01 12:24:23;;;;;;;;;;;8.40;99.90;;;;;;5094454;28;20311;-80
2023/02/01 12:27:01;;;;;;;;;;;8.40;99.90;;;;;;5095186;28;19916;-82
2023/02/01 12:29:45;;;;;;;;;;;8.40;99.90;;;;;;5095216;28;19916;-82
2023/02/01 12:32:20;;;;;;;;;;;8.30;99.90;;;;;;5101909;28;19916;-82
2023/02/01 12:34:55;;;;;;;;;;;8.40;99.90;;;;;;5094013;28;19994;-82
2023/02/01 12:37:32;;;;;;;;;;;8.50;99.90;;;;;;5110553;28;20301;-82
2023/02/01 12:40:13;;;;;;;;;;;8.40;99.90;;;;;;5094477;28;20382;-81
2023/02/01 12:42:41;;;;;;;;;;;8.50;99.90;;;;;;5101088;28;20253;-83
2023/02/01 12:45:25;;;;;;;;;;;8.50;99.90;;;;;;5095066;28;19912;-81
2023/02/01 12:47:54;;;;;;;;;;;8.60;99.90;;;;;;5091846;28;19923;-82
2023/02/01 12:50:25;;;;;;;;;;;8.70;99.90;;;;;;5094144;28;20316;-82
2023/02/01 12:52:52;;;;;;;;;;;8.80;99.90;;;;;;5095490;28;19917;-82
2023/02/01 12:55:22;;;;;;;;;;;8.70;99.90;;;;;;5092085;28;19920;-82
2023/02/01 12:57:53;;;;;;;;;;;8.70;99.90;;;;;;5092570;28;19999;-81
2023/02/01 13:00:21;;;;;;;;;;;8.60;99.90;;;;;;5090396;28;19912;-82
2023/02/01 13:02:57;;;;;;;;;;;8.50;99.90;;;;;;5090453;28;19912;-82
2023/02/01 13:05:29;;;;;;;;;;;8.50;99.90;;;;;;5100481;28;19955;-82
2023/02/01 13:08:00;;;;;;;;;;;8.40;99.90;;;;;;5100707;28;19994;-82
2023/02/01 13:10:34;;;;;;;;;;;8.40;99.90;;;;;;5095035;28;19916;-82
2023/02/01 13:13:12;;;;;;;;;;;8.40;99.90;;;;;;5095264;28;19927;-83
2023/02/01 13:15:43;;;;;;;;;;;8.30;99.90;;;;;;5100613;28;19999;-83
2023/02/01 13:18:13;;;;;;;;;;;8.30;99.90;;;;;;5096701;28;20292;-81
2023/02/01 13:20:41;;;;;;;;;;;8.30;99.90;;;;;;5100448;28;19912;-85
2023/02/01 13:23:23;;;;;;;;;;;8.30;99.90;;;;;;5095438;28;20472;-84
2023/02/01 13:26:00;;;;;;;;;;;8.30;99.90;;;;;;5096264;28;20033;-80
2023/02/01 13:28:33;;;;;;;;;;;8.30;99.90;;;;;;5097166;28;19916;-82
2023/02/01 13:31:13;;;;;;;;;;;8.30;99.90;;;;;;5101405;28;19912;-82
2023/02/01 13:33:54;;;;;;;;;;;8.30;99.90;;;;;;5108853;28;20331;-82
2023/02/01 13:36:31;;;;;;;;;;;8.30;99.90;;;;;;5096758;28;20342;-83
2023/02/01 13:38:56;;;;;;;;;;;8.20;99.90;;;;;;5099266;28;19913;-82
2023/02/01 13:41:28;;;;;;;;;;;8.30;99.90;;;;;;5099993;28;19915;-81
2023/02/01 13:44:10;;;;;;;;;;;8.30;99.90;;;;;;5110266;28;20019;-81
2023/02/01 13:46:43;;;;;;;;;;;8.20;99.90;;;;;;5110755;28;19943;-81
2023/02/01 13:49:23;;;;;;;;;;;8.30;99.90;;;;;;5100011;28;19963;-83
2023/02/01 13:51:51;;;;;;;;;;;8.30;99.90;;;;;;5100740;28;19916;-82
2023/02/01 13:54:28;;;;;;;;;;;8.30;99.90;;;;;;5102312;28;20367;-82
2023/02/01 13:56:54;;;;;;;;;;;8.20;99.90;;;;;;5110525;28;19975;-83
2023/02/01 13:59:38;;;;;;;;;;;8.20;99.90;;;;;;5098900;28;19915;-82
2023/02/01 14:02:23;;;;;;;;;;;8.30;99.90;;;;;;5099736;28;19915;-80
2023/02/01 14:04:49;;;;;;;;;;;8.30;99.90;;;;;;5095464;28;20001;-82
2023/02/01 14:07:18;;;;;;;;;;;8.40;99.90;;;;;;5100370;28;19912;-81
2023/02/01 14:09:44;;;;;;;;;;;8.40;99.90;;;;;;5098171;28;19919;-81
2023/02/01 14:12:29;;;;;;;;;;;8.40;99.90;;;;;;5104083;28;19932;-81
2023/02/01 14:15:15;;;;;;;;;;;8.40;99.90;;;;;;5089893;28;19963;-82
2023/02/01 14:17:41;;;;;;;;;;;8.40;99.90;;;;;;5113247;28;19912;-81
2023/02/01 14:20:31;;;;;;;;;;;8.50;99.90;;;;;;5097262;28;19962;-82
2023/02/01 14:23:11;;;;;;;;;;;8.50;99.90;;;;;;5094531;28;19934;-82
2023/02/01 14:25:37;;;;;;;;;;;8.50;99.90;;;;;;5120964;28;19959;-83
2023/02/01 14:28:10;;;;;;;;;;;8.60;99.90;;;;;;5102980;28;19938;-82
2023/02/01 14:30:35;;;;;;;;;;;8.60;99.90;;;;;;5119146;28;19912;-83
2023/02/01 14:33:11;;;;;;;;;;;8.60;99.90;;;;;;5092992;28;19939;-82
2023/02/01 14:35:36;;;;;;;;;;;8.60;99.90;;;;;;5103701;28;19919;-83
2023/02/01 14:38:03;;;;;;;;;;;8.60;99.90;;;;;;5104056;28;19912;-82
2023/02/01 14:40:29;;;;;;;;;;;8.70;99.90;;;;;;5103556;28;20018;-82
2023/02/01 14:42:56;;;;;;;;;;;8.60;99.90;;;;;;5104754;28;19916;-83
2023/02/01 14:45:22;;;;;;;;;;;8.70;99.90;;;;;;5105480;28;19995;-83
2023/02/01 14:47:47;;;;;;;;;;;8.70;99.90;;;;;;5108822;28;19965;-83
2023/02/01 14:50:18;;;;;;;;;;;8.70;99.90;;;;;;5106702;28;19981;-81
2023/02/01 14:52:50;;;;;;;;;;;8.70;99.90;;;;;;5101803;28;19912;-82
2023/02/01 14:55:20;;;;;;;;;;;8.70;99.90;;;;;;5100198;28;20286;-84
2023/02/01 14:57:46;;;;;;;;;;;8.70;99.90;;;;;;5108383;28;20010;-81
2023/02/01 15:00:20;;;;;;;;;;;8.70;99.90;;;;;;5105947;28;19975;-83
2023/02/01 15:02:49;;;;;;;;;;;8.70;99.90;;;;;;5108578;28;19916;-84
2023/02/01 15:05:29;;;;;;;;;;;8.70;99.90;;;;;;5105073;28;19912;-82